Pago Pago, AS

8:19 AM SST on August 20, 2014 (GMT -1100)
Lanai City | Change Station
CLOSE
Current Station
Airport
Location: Lanai City,
Elevation: 1309 ft
Nearby Weather Stations

Elev 1309 ft 20.79 °N, 156.95 °W | Updated 23 minutes ago

Clear
Clear
79 °F
Feels Like 79 °F
N
16
Wind Variable Wind from NE

Today
High -- | Low -- °F
--% Chance of Precip.
Yesterday
High -- | Low -- °F
Precip. -- in
6:35 AM 6:17 PM
Waning Crescent, 20% visible
Pressure 29.98 in
Visibility 10.0 miles
Clouds Clear
Dew Point 65 °F
Humidity 62%
Rainfall 0.00 in
Snow Depth Not available.
UV 5 out of 12
Pollen Not available.
Air Quality Not available.
Flu Activity Not available.
METAR PHNY 201856Z AUTO 04014KT 10SM CLR 26/18 A3005 RMK AO2 TSNO T02610183 SLP152 $

More Conditions Fewer Conditions

Pressure 29.98 in
Visibility 10.0 miles
Clouds Clear
Dew Point 65 °F
Humidity 62%
Rainfall 0.00 in
Snow Depth Not available.
UV 5 out of 12
Pollen Not available.
Air Quality Not available.
Flu Activity Not available.
METAR PHNY 201856Z AUTO 04014KT 10SM CLR 26/18 A3005 RMK AO2 TSNO T02610183 SLP152 $

More Conditions Fewer Conditions

10-Day Weather Forecast

Almanac

Astronomy

Aug. 20, 2014 Rise Set
Actual Time 6:35 AM SST 6:17 PM SST
Civil Twilight 6:13 AM SST 6:38 PM SST
Nautical Twilight 5:48 AM SST 7:04 PM SST
Astronomical Twilight 5:23 AM SST 7:29 PM SST
Moon 2:58 AM SST 2:41 PM SST
Length of Visible Light 12h 25m
Length of Day
11h 41m
Tomorrow will be 0m 42s longer.
Waning Crescent, 20% of the Moon is Illuminated
Today
Waning Crescent
Aug 25
New
Sep 2
First Quarter
Sep 8
Full
Sep 15
Last Quarter

Community

WunderPhotos

Upload Photos

1,745,723 photos uploaded!

WunderBlogs® & News

By Dr. Jeff Masters
Director of Meteorology, Weather Underground
By Kari Strenfel
Meteorologist, Weather Underground
By Christopher C. Burt
Weather Historian, Weather Underground
August 20, 2014
August 20, 2014
August 20, 2014

Nearby

Snow Depth

Station Depth Elevation
No new snow has been reported.

Earthquake Activity

City Distance Mag. Time & Date
No recent earthquake activity has been reported nearby.
Minimum magnitude displayed is 2.5.

Coastal Water Temperatures

Place Temperature
No Stations Reporting

Nearby Weather Stations